createdAt,value
2023-01-11T00:02:07.805Z,59.67
2023-01-11T00:04:58.229Z,64.33
2023-01-11T00:07:47.214Z,61.20
2023-01-11T00:10:36.291Z,62.53
2023-01-11T00:13:25.475Z,61.53
2023-01-11T00:16:14.796Z,69.33
2023-01-11T00:19:03.583Z,70.07
2023-01-11T00:21:53.919Z,65.93
2023-01-11T00:24:42.558Z,77.30
2023-01-11T00:27:31.919Z,72.60
2023-01-11T00:30:20.959Z,84.53
2023-01-11T00:33:12.990Z,79.00
2023-01-11T00:36:01.956Z,82.10
2023-01-11T00:38:55.607Z,79.97
2023-01-11T00:42:01.800Z,80.37
2023-01-11T00:45:07.984Z,81.50
2023-01-11T00:48:00.618Z,86.13
2023-01-11T00:50:49.334Z,86.13
2023-01-11T00:53:38.027Z,84.73
2023-01-11T00:56:28.089Z,90.73
2023-01-11T00:59:17.036Z,84.03
2023-01-11T01:02:06.044Z,87.83
2023-01-11T01:04:54.859Z,90.30
2023-01-11T01:07:43.567Z,80.97
2023-01-11T01:10:32.558Z,73.07
2023-01-11T01:13:39.751Z,67.00
2023-01-11T01:16:29.614Z,75.97
2023-01-11T01:19:18.465Z,75.53
2023-01-11T01:22:07.735Z,80.43
2023-01-11T01:24:56.385Z,77.90
2023-01-11T01:27:45.194Z,67.73
2023-01-11T01:30:35.237Z,69.03
2023-01-11T01:33:24.470Z,59.30
2023-01-11T01:36:13.234Z,66.30
2023-01-11T01:39:02.632Z,64.33
2023-01-11T01:41:51.423Z,65.80
2023-01-11T01:45:08.114Z,63.90
2023-01-11T01:48:01.740Z,68.23
2023-01-11T01:50:54.371Z,68.27
2023-01-11T01:53:46.785Z,69.00
2023-01-11T01:56:40.342Z,66.57
2023-01-11T01:59:32.424Z,73.07
2023-01-11T02:02:24.063Z,71.43
2023-01-11T02:05:15.109Z,72.87
2023-01-11T02:08:09.834Z,72.43
2023-01-11T02:10:58.842Z,69.27
2023-01-11T02:13:47.710Z,67.50
2023-01-11T02:16:36.584Z,70.47
2023-01-11T02:19:46.723Z,64.67
2023-01-11T02:23:10.698Z,66.77
2023-01-11T02:26:46.668Z,58.23
2023-01-11T02:29:50.730Z,73.90
2023-01-11T02:32:50.197Z,60.23
2023-01-11T02:35:45.253Z,56.03
2023-01-11T02:38:40.979Z,67.23
2023-01-11T02:41:57.350Z,65.60
2023-01-11T02:45:04.513Z,64.33
2023-01-11T02:47:59.331Z,62.50
2023-01-11T02:50:55.386Z,67.50
2023-01-11T02:53:47.525Z,68.37
2023-01-11T02:56:48.339Z,62.77
2023-01-11T02:59:38.401Z,50.07
2023-01-11T03:02:29.301Z,62.63
2023-01-11T03:05:18.239Z,56.43
2023-01-11T03:08:32.238Z,58.77
2023-01-11T03:11:54.146Z,65.80
2023-01-11T03:14:51.201Z,61.40
2023-01-11T03:17:51.330Z,55.40
2023-01-11T03:20:42.896Z,60.37
2023-01-11T03:23:38.650Z,68.43
2023-01-11T03:26:37.143Z,64.13
2023-01-11T03:29:32.432Z,66.77
2023-01-11T03:32:27.609Z,69.83
2023-01-11T03:35:25.209Z,58.57
2023-01-11T03:38:19.525Z,56.20
2023-01-11T03:41:13.497Z,68.67
2023-01-11T03:44:06.276Z,59.57
2023-01-11T03:46:59.512Z,65.40
2023-01-11T03:49:55.684Z,67.70
2023-01-11T03:52:47.167Z,69.10
2023-01-11T03:55:40.349Z,82.40
2023-01-11T03:58:29.820Z,59.57
2023-01-11T04:01:18.851Z,63.27
2023-01-11T04:04:08.288Z,68.07
2023-01-11T04:06:57.510Z,90.57
2023-01-11T04:09:48.210Z,65.90
2023-01-11T04:12:36.862Z,73.27
2023-01-11T04:15:25.680Z,74.87
2023-01-11T04:18:14.459Z,65.37
2023-01-11T04:21:03.211Z,67.27
2023-01-11T04:23:52.003Z,57.30
2023-01-11T04:26:42.276Z,94.60
2023-01-11T04:29:31.184Z,97.23
2023-01-11T04:32:19.841Z,74.73
2023-01-11T04:35:09.425Z,65.10
2023-01-11T04:38:01.539Z,87.07
2023-01-11T04:41:10.384Z,64.83
2023-01-11T04:43:59.378Z,90.07
2023-01-11T04:46:48.137Z,73.40
2023-01-11T04:49:36.831Z,51.63
2023-01-11T04:52:25.499Z,81.57
2023-01-11T04:55:14.173Z,65.77
2023-01-11T04:58:03.067Z,56.23
2023-01-11T05:00:53.233Z,56.70
2023-01-11T05:03:42.042Z,57.77
2023-01-11T05:06:30.797Z,57.80
2023-01-11T05:09:20.542Z,55.73
2023-01-11T05:12:09.325Z,47.57
2023-01-11T05:14:59.304Z,83.77
2023-01-11T05:17:49.462Z,55.20
2023-01-11T05:20:38.127Z,60.67
2023-01-11T05:23:26.829Z,60.47
2023-01-11T05:26:18.087Z,45.83
2023-01-11T05:29:08.361Z,42.10
2023-01-11T05:31:57.132Z,40.90
2023-01-11T05:34:47.346Z,52.03
2023-01-11T05:37:36.007Z,48.80
2023-01-11T05:40:24.796Z,43.63
2023-01-11T05:43:13.512Z,49.83
2023-01-11T05:46:01.773Z,47.67
2023-01-11T05:48:50.900Z,49.90
2023-01-11T05:51:42.034Z,41.53
2023-01-11T05:54:30.984Z,54.13
2023-01-11T05:57:22.165Z,62.07
2023-01-11T06:00:12.887Z,42.07
2023-01-11T06:03:02.815Z,44.27
2023-01-11T06:05:52.160Z,47.00
2023-01-11T06:08:42.923Z,45.17
2023-01-11T06:11:32.717Z,42.90
2023-01-11T06:14:21.715Z,42.30
2023-01-11T06:17:10.612Z,39.60
2023-01-11T06:20:00.096Z,46.90
2023-01-11T06:22:48.955Z,42.10
2023-01-11T06:25:39.105Z,41.73
2023-01-11T06:28:27.812Z,38.00
2023-01-11T06:31:17.949Z,32.47
2023-01-11T06:34:07.077Z,39.80
2023-01-11T06:36:55.950Z,35.83
2023-01-11T06:39:44.607Z,39.93
2023-01-11T06:42:36.552Z,40.13
2023-01-11T06:45:25.363Z,35.47
2023-01-11T06:48:14.266Z,40.63
2023-01-11T06:51:03.184Z,34.87
2023-01-11T06:53:51.993Z,36.13
2023-01-11T06:56:44.356Z,37.67
2023-01-11T06:59:38.967Z,39.23
2023-01-11T07:02:30.710Z,37.60
2023-01-11T07:05:25.451Z,42.77
2023-01-11T07:08:10.319Z,37.80
2023-01-11T07:10:59.142Z,37.53
2023-01-11T07:13:47.796Z,36.20
2023-01-11T07:16:38.075Z,36.63
2023-01-11T07:19:27.396Z,37.23
2023-01-11T07:22:16.386Z,37.67
2023-01-11T07:25:07.911Z,35.00
2023-01-11T07:28:01.265Z,33.93
2023-01-11T07:30:58.512Z,33.10
2023-01-11T07:33:49.746Z,34.10
2023-01-11T07:36:39.779Z,39.03
2023-01-11T07:39:42.160Z,35.67
2023-01-11T07:42:49.734Z,34.67
2023-01-11T07:45:45.857Z,30.43
2023-01-11T07:48:35.505Z,29.57
2023-01-11T07:51:25.993Z,29.10
2023-01-11T07:54:15.197Z,31.37
2023-01-11T07:57:03.968Z,32.43
2023-01-11T07:59:52.696Z,33.07
2023-01-11T08:02:41.563Z,29.37
2023-01-11T08:05:30.813Z,37.17
2023-01-11T08:08:21.161Z,34.63
2023-01-11T08:11:27.516Z,32.03
2023-01-11T08:14:34.017Z,34.40
2023-01-11T08:17:22.807Z,31.93
2023-01-11T08:20:12.690Z,33.07
2023-01-11T08:23:04.964Z,33.60
2023-01-11T08:25:59.161Z,30.97
2023-01-11T08:28:48.308Z,31.20
2023-01-11T08:31:41.227Z,30.83
2023-01-11T08:34:30.208Z,31.67
2023-01-11T08:37:19.172Z,27.30
2023-01-11T08:40:09.153Z,34.80
2023-01-11T08:42:59.527Z,29.20
2023-01-11T08:45:49.007Z,32.07
2023-01-11T08:48:38.159Z,31.97
2023-01-11T08:51:27.249Z,28.60
2023-01-11T08:54:17.771Z,30.63
2023-01-11T08:57:06.476Z,31.53
2023-01-11T08:59:56.737Z,31.63
2023-01-11T09:02:46.147Z,47.67
2023-01-11T09:05:34.975Z,33.73
2023-01-11T09:08:24.384Z,29.23
2023-01-11T09:11:26.988Z,27.50
2023-01-11T09:14:16.101Z,29.53
2023-01-11T09:17:06.357Z,36.67
2023-01-11T09:19:55.129Z,30.27
2023-01-11T09:22:47.119Z,28.23
2023-01-11T09:25:35.997Z,28.57
2023-01-11T09:28:24.926Z,26.93
2023-01-11T09:31:13.741Z,29.73
2023-01-11T09:34:04.992Z,28.00
2023-01-11T09:36:53.734Z,28.93
2023-01-11T09:39:43.608Z,34.80
2023-01-11T09:42:37.716Z,35.53
2023-01-11T09:45:30.627Z,30.67
2023-01-11T09:48:28.967Z,28.63
2023-01-11T09:51:20.777Z,32.17
2023-01-11T09:54:17.277Z,33.47
2023-01-11T09:57:16.024Z,32.10
2023-01-11T10:00:12.656Z,32.53
2023-01-11T10:03:24.908Z,32.43
2023-01-11T10:06:22.399Z,30.73
2023-01-11T10:18:28.162Z,30.47
2023-01-11T10:19:36.030Z,27.97
2023-01-11T10:22:33.674Z,28.23
2023-01-11T10:25:27.633Z,34.80
2023-01-11T10:28:28.265Z,32.90
2023-01-11T10:31:30.628Z,32.93
2023-01-11T10:34:42.547Z,33.23
2023-01-11T10:37:54.938Z,30.50
2023-01-11T10:41:07.026Z,29.73
2023-01-11T10:44:07.355Z,29.10
2023-01-11T10:46:59.867Z,32.30
2023-01-11T10:49:56.962Z,32.77
2023-01-11T10:52:54.955Z,34.93
2023-01-11T10:55:52.984Z,32.97
2023-01-11T10:59:04.217Z,25.80
2023-01-11T11:02:03.811Z,32.30
2023-01-11T11:05:07.541Z,30.47
2023-01-11T11:08:15.982Z,30.13
2023-01-11T11:11:14.538Z,29.00
2023-01-11T11:14:10.698Z,29.33
2023-01-11T11:17:12.405Z,30.57
2023-01-11T11:20:02.119Z,28.00
2023-01-11T11:22:52.374Z,27.13
2023-01-11T11:25:50.763Z,27.60
2023-01-11T11:28:39.895Z,28.07
2023-01-11T11:31:31.165Z,26.53
2023-01-11T11:34:23.489Z,27.33
2023-01-11T11:37:26.487Z,27.40
2023-01-11T11:40:31.098Z,30.37
2023-01-11T11:43:23.713Z,24.50
2023-01-11T11:46:25.574Z,29.53
2023-01-11T11:49:18.214Z,32.27
2023-01-11T11:52:10.456Z,26.47
2023-01-11T11:54:59.865Z,29.67
2023-01-11T11:57:49.332Z,27.07
2023-01-11T12:00:47.017Z,28.43
2023-01-11T12:03:36.289Z,28.00
2023-01-11T12:06:28.471Z,24.87
2023-01-11T12:09:29.004Z,29.33
2023-01-11T12:12:20.113Z,23.37
2023-01-11T12:15:24.236Z,24.90
2023-01-11T12:18:27.030Z,20.60
2023-01-11T12:21:21.376Z,24.63
2023-01-11T12:24:17.249Z,22.83
2023-01-11T12:27:15.246Z,21.73
2023-01-11T12:30:23.217Z,20.70
2023-01-11T12:33:33.463Z,24.40
2023-01-11T12:36:32.065Z,20.73
2023-01-11T12:39:30.179Z,21.80
2023-01-11T12:42:39.207Z,22.37
2023-01-11T12:45:40.086Z,22.87
2023-01-11T12:48:45.250Z,25.87
2023-01-11T12:51:46.588Z,24.93
2023-01-11T12:54:54.117Z,22.17
2023-01-11T12:58:00.058Z,23.40
2023-01-11T13:01:12.869Z,22.57
2023-01-11T13:04:37.347Z,25.50
2023-01-11T13:07:41.489Z,25.03
2023-01-11T13:10:38.048Z,23.00
2023-01-11T13:13:32.455Z,21.30
2023-01-11T13:16:28.188Z,22.83
2023-01-11T13:19:22.542Z,23.33
2023-01-11T13:22:16.280Z,26.13
2023-01-11T13:25:17.172Z,22.03
2023-01-11T13:28:24.373Z,24.47
2023-01-11T13:31:16.393Z,24.70
2023-01-11T13:34:08.694Z,24.40
2023-01-11T13:37:00.604Z,24.87
2023-01-11T13:39:53.403Z,23.10
2023-01-11T13:42:47.759Z,25.40
2023-01-11T13:45:42.277Z,28.03
2023-01-11T13:48:36.510Z,28.47
2023-01-11T13:51:32.553Z,26.10
2023-01-11T13:54:26.742Z,25.07
2023-01-11T13:57:23.428Z,27.53
2023-01-11T14:00:23.720Z,24.17
2023-01-11T14:03:28.253Z,24.67
2023-01-11T14:06:42.528Z,27.50
2023-01-11T14:09:54.735Z,24.07
2023-01-11T14:13:06.431Z,25.63
2023-01-11T14:16:05.193Z,22.53
2023-01-11T14:19:04.861Z,27.50
2023-01-11T14:22:12.214Z,26.37
2023-01-11T14:25:04.612Z,25.50
2023-01-11T14:28:15.513Z,24.93
2023-01-11T14:31:39.100Z,27.00
2023-01-11T14:34:52.297Z,24.87
2023-01-11T14:38:22.992Z,22.90
2023-01-11T14:41:40.429Z,24.27
2023-01-11T14:44:49.741Z,24.03
2023-01-11T14:48:02.406Z,27.73
2023-01-11T14:51:07.055Z,23.83
2023-01-11T14:54:02.966Z,25.23
2023-01-11T14:56:55.884Z,27.27
2023-01-11T14:59:44.704Z,24.73
2023-01-11T15:02:33.653Z,22.37
2023-01-11T15:05:35.544Z,28.20
2023-01-11T15:08:26.711Z,26.63
2023-01-11T15:11:36.997Z,27.90
2023-01-11T15:14:32.760Z,28.27
2023-01-11T15:17:43.910Z,28.23
2023-01-11T15:20:34.169Z,28.73
2023-01-11T15:23:23.367Z,27.70
2023-01-11T15:26:12.972Z,30.30
2023-01-11T15:29:03.972Z,27.00
2023-01-11T15:32:16.779Z,27.07
2023-01-11T15:35:30.724Z,28.70
2023-01-11T15:38:24.703Z,28.23
2023-01-11T15:41:35.577Z,27.53
2023-01-11T15:44:43.469Z,27.97
2023-01-11T15:47:45.292Z,27.97
2023-01-11T15:50:55.946Z,29.40
2023-01-11T15:54:06.534Z,30.57
2023-01-11T15:57:23.091Z,28.77
2023-01-11T16:00:34.564Z,30.43
2023-01-11T16:03:45.004Z,24.73
2023-01-11T16:06:45.046Z,29.47
2023-01-11T16:10:07.465Z,29.20
2023-01-11T16:13:16.547Z,27.87
2023-01-11T16:16:12.758Z,26.67
2023-01-11T16:19:08.421Z,28.93
2023-01-11T16:22:01.968Z,26.50
2023-01-11T16:24:57.087Z,28.53
2023-01-11T16:27:52.544Z,28.37
2023-01-11T16:30:43.572Z,27.57
2023-01-11T16:33:34.747Z,28.93
2023-01-11T16:36:24.952Z,31.87
2023-01-11T16:39:16.614Z,27.80
2023-01-11T16:42:08.099Z,27.83
2023-01-11T16:45:01.635Z,29.37
2023-01-11T16:48:05.820Z,32.27
2023-01-11T16:51:03.977Z,32.27
2023-01-11T16:53:58.232Z,29.57
2023-01-11T16:56:49.711Z,30.07
2023-01-11T16:59:40.295Z,34.27
2023-01-11T17:02:35.926Z,33.50
2023-01-11T17:05:26.117Z,31.73
2023-01-11T17:08:36.340Z,30.83
2023-01-11T17:11:29.705Z,31.97
2023-01-11T17:14:46.998Z,30.30
2023-01-11T17:17:38.704Z,30.83
2023-01-11T17:20:31.777Z,28.90
2023-01-11T17:23:21.060Z,30.10
2023-01-11T17:26:18.034Z,29.60
2023-01-11T17:29:08.278Z,26.13
2023-01-11T17:31:58.410Z,29.57
2023-01-11T17:34:51.363Z,30.93
2023-01-11T17:37:41.140Z,32.93
2023-01-11T17:40:33.102Z,30.43
2023-01-11T17:43:41.808Z,30.90
2023-01-11T17:46:31.030Z,32.33
2023-01-11T17:49:24.026Z,33.60
2023-01-11T17:52:21.343Z,29.50
2023-01-11T17:55:17.139Z,30.37
2023-01-11T17:58:21.027Z,29.27
2023-01-11T18:01:19.234Z,30.53
2023-01-11T18:04:20.664Z,30.83
2023-01-11T18:07:17.069Z,31.97
2023-01-11T18:10:06.546Z,27.23
2023-01-11T18:12:58.028Z,27.63
2023-01-11T18:15:48.823Z,25.87
2023-01-11T18:18:43.506Z,28.43
2023-01-11T18:21:41.284Z,23.73
2023-01-11T18:24:43.145Z,25.37
2023-01-11T18:27:33.524Z,24.90
2023-01-11T18:30:38.026Z,26.40
2023-01-11T18:33:29.438Z,30.93
2023-01-11T18:36:21.465Z,27.53
2023-01-11T18:39:12.537Z,26.60
2023-01-11T18:42:10.329Z,30.27
2023-01-11T18:44:59.419Z,29.07
2023-01-11T18:47:48.447Z,30.80
2023-01-11T18:50:38.279Z,30.30
2023-01-11T18:53:28.950Z,28.07
2023-01-11T18:56:17.916Z,29.07
2023-01-11T18:59:08.067Z,35.27
2023-01-11T19:02:16.108Z,29.87
2023-01-11T19:05:05.893Z,34.20
2023-01-11T19:07:54.651Z,29.47
2023-01-11T19:10:43.425Z,27.80
2023-01-11T19:13:32.576Z,25.53
2023-01-11T19:16:22.713Z,24.77
2023-01-11T19:19:11.771Z,21.93
2023-01-11T19:22:00.718Z,23.80
2023-01-11T19:24:49.719Z,25.97
2023-01-11T19:27:38.910Z,25.43
2023-01-11T19:30:27.729Z,26.43
2023-01-11T19:33:18.222Z,25.33
2023-01-11T19:36:07.950Z,25.23
2023-01-11T19:38:56.783Z,27.23
2023-01-11T19:42:02.406Z,27.77
2023-01-11T19:44:51.575Z,24.70
2023-01-11T19:47:40.989Z,23.27
2023-01-11T19:50:31.222Z,26.63
2023-01-11T19:53:20.317Z,22.57
2023-01-11T19:56:10.601Z,24.37
2023-01-11T19:58:59.421Z,28.93
2023-01-11T20:01:49.381Z,27.33
2023-01-11T20:04:38.452Z,27.17
2023-01-11T20:07:28.842Z,27.63
2023-01-11T20:10:18.421Z,27.53
2023-01-11T20:13:08.551Z,28.67
2023-01-11T20:15:57.587Z,29.20
2023-01-11T20:18:52.442Z,32.13
2023-01-11T20:21:41.298Z,33.57
2023-01-11T20:24:31.904Z,33.70
2023-01-11T20:27:20.743Z,31.30
2023-01-11T20:30:11.154Z,34.10
2023-01-11T20:33:00.337Z,33.27
2023-01-11T20:35:49.687Z,31.87
2023-01-11T20:38:38.620Z,38.60
2023-01-11T20:41:46.895Z,37.40
2023-01-11T20:44:36.029Z,38.03
2023-01-11T20:47:25.391Z,33.73
2023-01-11T20:50:14.540Z,38.13
2023-01-11T20:53:04.070Z,36.77
2023-01-11T20:55:53.212Z,35.90
2023-01-11T20:58:46.763Z,38.67
2023-01-11T21:01:35.969Z,37.13
2023-01-11T21:04:24.961Z,44.43
2023-01-11T21:07:14.208Z,41.67
2023-01-11T21:10:03.766Z,43.13
2023-01-11T21:12:54.368Z,42.63
2023-01-11T21:15:44.754Z,40.40
2023-01-11T21:18:33.728Z,43.97
2023-01-11T21:21:23.231Z,44.10
2023-01-11T21:24:15.168Z,44.63
2023-01-11T21:27:04.305Z,43.80
2023-01-11T21:29:53.204Z,42.23
2023-01-11T21:32:43.704Z,45.63
2023-01-11T21:35:34.883Z,43.57
2023-01-11T21:38:24.021Z,44.33
2023-01-11T21:41:15.217Z,47.03
2023-01-11T21:44:04.102Z,43.13
2023-01-11T21:46:55.160Z,42.20
2023-01-11T21:49:45.343Z,45.47
2023-01-11T21:52:35.295Z,44.60
2023-01-11T21:55:24.276Z,43.43
2023-01-11T21:58:16.367Z,52.33
2023-01-11T22:01:11.471Z,42.93
2023-01-11T22:04:00.858Z,43.73
2023-01-11T22:06:56.168Z,43.27
2023-01-11T22:10:03.711Z,46.53
2023-01-11T22:12:57.070Z,44.93
2023-01-11T22:15:46.093Z,46.73
2023-01-11T22:18:36.089Z,47.80
2023-01-11T22:21:25.559Z,49.30
2023-01-11T22:24:16.005Z,41.57
2023-01-11T22:27:04.958Z,41.77
2023-01-11T22:29:54.882Z,41.10
2023-01-11T22:32:43.769Z,43.40
2023-01-11T22:35:32.930Z,43.90
2023-01-11T22:38:21.847Z,40.87
2023-01-11T22:41:12.927Z,40.67
2023-01-11T22:44:01.999Z,44.60
2023-01-11T22:46:51.087Z,42.03
2023-01-11T22:49:39.996Z,43.83
2023-01-11T22:52:28.857Z,40.57
2023-01-11T22:55:17.959Z,42.83
2023-01-11T22:58:08.205Z,38.20
2023-01-11T23:00:57.214Z,41.47
2023-01-11T23:03:46.659Z,43.90
2023-01-11T23:06:36.870Z,40.30
2023-01-11T23:09:26.018Z,41.07
2023-01-11T23:12:32.152Z,39.93
2023-01-11T23:15:22.368Z,42.20
2023-01-11T23:18:11.530Z,41.67
2023-01-11T23:21:04.280Z,43.77
2023-01-11T23:23:53.540Z,40.67
2023-01-11T23:26:42.538Z,41.33
2023-01-11T23:29:32.105Z,41.73
2023-01-11T23:32:22.772Z,45.43
2023-01-11T23:35:11.988Z,42.93
2023-01-11T23:38:01.114Z,44.50
2023-01-11T23:41:15.769Z,41.87
2023-01-11T23:44:07.829Z,43.03
2023-01-11T23:47:14.167Z,42.40
2023-01-11T23:50:04.689Z,43.03
2023-01-11T23:52:55.282Z,48.30
2023-01-11T23:55:44.313Z,43.00
2023-01-11T23:58:33.318Z,44.30
